sensor_id;sensor_type;location;lat;lon;timestamp;P1;durP1;ratioP1;P2;durP2;ratioP2
15952;SDS011;8075;47.766;8.846;2022-10-24T04:00:17;4.88;;;2.30;;
15952;SDS011;8075;47.766;8.846;2022-10-24T04:02:44;6.78;;;2.80;;
15952;SDS011;8075;47.766;8.846;2022-10-24T04:05:14;6.40;;;2.40;;
15952;SDS011;8075;47.766;8.846;2022-10-24T04:07:40;6.28;;;2.50;;
15952;SDS011;8075;47.766;8.846;2022-10-24T04:10:06;6.43;;;2.60;;
15952;SDS011;8075;47.766;8.846;2022-10-24T04:12:33;5.97;;;2.65;;
15952;SDS011;8075;47.766;8.846;2022-10-24T04:14:59;6.68;;;3.00;;
15952;SDS011;8075;47.766;8.846;2022-10-24T04:17:25;4.00;;;2.08;;
15952;SDS011;8075;47.766;8.846;2022-10-24T04:19:51;4.65;;;2.50;;
15952;SDS011;8075;47.766;8.846;2022-10-24T04:22:17;4.63;;;2.20;;
15952;SDS011;8075;47.766;8.846;2022-10-24T04:24:43;8.13;;;2.95;;
15952;SDS011;8075;47.766;8.846;2022-10-24T04:27:09;6.18;;;3.15;;
15952;SDS011;8075;47.766;8.846;2022-10-24T04:29:35;7.22;;;3.47;;
15952;SDS011;8075;47.766;8.846;2022-10-24T04:32:03;3.83;;;2.42;;
15952;SDS011;8075;47.766;8.846;2022-10-24T04:34:35;7.32;;;2.70;;
15952;SDS011;8075;47.766;8.846;2022-10-24T04:37:01;5.57;;;2.63;;
15952;SDS011;8075;47.766;8.846;2022-10-24T04:39:28;5.05;;;2.50;;
15952;SDS011;8075;47.766;8.846;2022-10-24T04:41:54;4.97;;;2.30;;
15952;SDS011;8075;47.766;8.846;2022-10-24T04:44:20;7.30;;;2.70;;
15952;SDS011;8075;47.766;8.846;2022-10-24T04:46:48;4.93;;;2.80;;
15952;SDS011;8075;47.766;8.846;2022-10-24T04:49:14;5.88;;;2.42;;
15952;SDS011;8075;47.766;8.846;2022-10-24T04:51:40;4.05;;;2.50;;
15952;SDS011;8075;47.766;8.846;2022-10-24T04:54:06;7.53;;;2.72;;
15952;SDS011;8075;47.766;8.846;2022-10-24T04:56:35;3.28;;;1.90;;
15952;SDS011;8075;47.766;8.846;2022-10-24T04:59:03;6.03;;;2.53;;
15952;SDS011;8075;47.766;8.846;2022-10-24T05:01:35;5.18;;;2.67;;
15952;SDS011;8075;47.766;8.846;2022-10-24T05:04:01;6.10;;;3.20;;
15952;SDS011;8075;47.766;8.846;2022-10-24T05:06:27;7.63;;;4.93;;
15952;SDS011;8075;47.766;8.846;2022-10-24T05:08:53;7.53;;;4.05;;
15952;SDS011;8075;47.766;8.846;2022-10-24T05:11:21;6.47;;;4.27;;
15952;SDS011;8075;47.766;8.846;2022-10-24T05:13:47;9.45;;;5.22;;
15952;SDS011;8075;47.766;8.846;2022-10-24T05:16:15;8.20;;;5.55;;
15952;SDS011;8075;47.766;8.846;2022-10-24T05:18:46;6.77;;;4.07;;
15952;SDS011;8075;47.766;8.846;2022-10-24T05:21:12;4.65;;;2.00;;
15952;SDS011;8075;47.766;8.846;2022-10-24T05:23:38;3.83;;;1.80;;
15952;SDS011;8075;47.766;8.846;2022-10-24T05:26:04;5.73;;;2.67;;
15952;SDS011;8075;47.766;8.846;2022-10-24T05:28:33;6.05;;;3.42;;
15952;SDS011;8075;47.766;8.846;2022-10-24T05:30:59;4.60;;;2.50;;
15952;SDS011;8075;47.766;8.846;2022-10-24T05:33:25;6.03;;;3.03;;
15952;SDS011;8075;47.766;8.846;2022-10-24T05:35:56;4.77;;;3.07;;
15952;SDS011;8075;47.766;8.846;2022-10-24T05:38:22;5.03;;;2.90;;
15952;SDS011;8075;47.766;8.846;2022-10-24T05:40:51;4.68;;;2.85;;
15952;SDS011;8075;47.766;8.846;2022-10-24T05:43:20;6.97;;;3.40;;
15952;SDS011;8075;47.766;8.846;2022-10-24T05:45:47;5.22;;;2.80;;
15952;SDS011;8075;47.766;8.846;2022-10-24T05:48:13;4.30;;;2.72;;
15952;SDS011;8075;47.766;8.846;2022-10-24T05:50:42;3.45;;;2.30;;
15952;SDS011;8075;47.766;8.846;2022-10-24T05:53:08;4.80;;;2.70;;
15952;SDS011;8075;47.766;8.846;2022-10-24T05:55:34;3.45;;;2.17;;
15952;SDS011;8075;47.766;8.846;2022-10-24T05:58:01;6.22;;;2.70;;
15952;SDS011;8075;47.766;8.846;2022-10-24T06:00:38;5.63;;;2.70;;
15952;SDS011;8075;47.766;8.846;2022-10-24T06:03:04;4.72;;;2.65;;
15952;SDS011;8075;47.766;8.846;2022-10-24T06:05:30;4.53;;;2.80;;
15952;SDS011;8075;47.766;8.846;2022-10-24T06:07:59;5.55;;;2.60;;
15952;SDS011;8075;47.766;8.846;2022-10-24T06:10:25;4.38;;;3.10;;
15952;SDS011;8075;47.766;8.846;2022-10-24T06:12:51;6.05;;;3.38;;
15952;SDS011;8075;47.766;8.846;2022-10-24T06:15:17;3.80;;;3.17;;
15952;SDS011;8075;47.766;8.846;2022-10-24T06:17:43;3.92;;;2.83;;
15952;SDS011;8075;47.766;8.846;2022-10-24T06:20:09;4.55;;;3.40;;
15952;SDS011;8075;47.766;8.846;2022-10-24T06:22:38;4.07;;;3.67;;
15952;SDS011;8075;47.766;8.846;2022-10-24T06:25:04;6.30;;;3.50;;
15952;SDS011;8075;47.766;8.846;2022-10-24T06:27:31;5.50;;;3.97;;
15952;SDS011;8075;47.766;8.846;2022-10-24T06:29:57;5.97;;;3.80;;
15952;SDS011;8075;47.766;8.846;2022-10-24T06:32:23;5.32;;;3.63;;
15952;SDS011;8075;47.766;8.846;2022-10-24T06:34:49;7.20;;;3.85;;
15952;SDS011;8075;47.766;8.846;2022-10-24T06:37:18;8.55;;;4.57;;
15952;SDS011;8075;47.766;8.846;2022-10-24T06:39:44;12.88;;;5.25;;
15952;SDS011;8075;47.766;8.846;2022-10-24T06:42:10;11.32;;;4.45;;
15952;SDS011;8075;47.766;8.846;2022-10-24T06:44:36;11.13;;;4.40;;
15952;SDS011;8075;47.766;8.846;2022-10-24T06:47:02;8.95;;;3.53;;
15952;SDS011;8075;47.766;8.846;2022-10-24T06:49:31;7.17;;;2.93;;
15952;SDS011;8075;47.766;8.846;2022-10-24T06:52:05;7.60;;;3.77;;
15952;SDS011;8075;47.766;8.846;2022-10-24T06:54:34;8.43;;;3.28;;
15952;SDS011;8075;47.766;8.846;2022-10-24T06:57:00;6.75;;;3.70;;
15952;SDS011;8075;47.766;8.846;2022-10-24T06:59:26;5.65;;;3.22;;
15952;SDS011;8075;47.766;8.846;2022-10-24T07:01:52;6.03;;;3.00;;
15952;SDS011;8075;47.766;8.846;2022-10-24T07:04:18;4.78;;;3.17;;
15952;SDS011;8075;47.766;8.846;2022-10-24T07:06:44;4.82;;;3.00;;
15952;SDS011;8075;47.766;8.846;2022-10-24T07:09:11;6.22;;;3.10;;
15952;SDS011;8075;47.766;8.846;2022-10-24T07:11:37;5.30;;;3.15;;
15952;SDS011;8075;47.766;8.846;2022-10-24T07:14:03;5.15;;;3.05;;
15952;SDS011;8075;47.766;8.846;2022-10-24T07:16:30;7.30;;;3.38;;
15952;SDS011;8075;47.766;8.846;2022-10-24T07:18:56;7.30;;;3.70;;
15952;SDS011;8075;47.766;8.846;2022-10-24T07:21:23;10.23;;;4.40;;
15952;SDS011;8075;47.766;8.846;2022-10-24T07:23:50;8.05;;;3.80;;
15952;SDS011;8075;47.766;8.846;2022-10-24T07:26:17;17.17;;;4.63;;
15952;SDS011;8075;47.766;8.846;2022-10-24T07:28:44;34.72;;;7.28;;
15952;SDS011;8075;47.766;8.846;2022-10-24T07:31:11;18.95;;;4.78;;
15952;SDS011;8075;47.766;8.846;2022-10-24T07:33:39;15.30;;;5.30;;
15952;SDS011;8075;47.766;8.846;2022-10-24T07:36:05;5.50;;;3.28;;
15952;SDS011;8075;47.766;8.846;2022-10-24T07:38:31;9.02;;;4.05;;
15952;SDS011;8075;47.766;8.846;2022-10-24T07:40:57;6.35;;;3.10;;
15952;SDS011;8075;47.766;8.846;2022-10-24T07:43:23;5.03;;;2.70;;
15952;SDS011;8075;47.766;8.846;2022-10-24T07:45:49;7.28;;;2.83;;
15952;SDS011;8075;47.766;8.846;2022-10-24T07:48:15;6.63;;;2.97;;
15952;SDS011;8075;47.766;8.846;2022-10-24T07:50:42;4.55;;;2.80;;
15952;SDS011;8075;47.766;8.846;2022-10-24T07:53:09;6.25;;;2.67;;
15952;SDS011;8075;47.766;8.846;2022-10-24T07:55:39;7.18;;;2.85;;
15952;SDS011;8075;47.766;8.846;2022-10-24T07:58:05;6.40;;;2.53;;
15952;SDS011;8075;47.766;8.846;2022-10-24T08:00:32;8.35;;;3.20;;
15952;SDS011;8075;47.766;8.846;2022-10-24T08:02:58;3.67;;;2.55;;
15952;SDS011;8075;47.766;8.846;2022-10-24T08:05:24;5.57;;;2.80;;
15952;SDS011;8075;47.766;8.846;2022-10-24T08:07:50;4.57;;;2.22;;
15952;SDS011;8075;47.766;8.846;2022-10-24T08:10:26;6.68;;;3.30;;
15952;SDS011;8075;47.766;8.846;2022-10-24T08:12:54;7.10;;;3.23;;
15952;SDS011;8075;47.766;8.846;2022-10-24T08:15:20;5.20;;;3.40;;
15952;SDS011;8075;47.766;8.846;2022-10-24T08:17:52;7.28;;;3.70;;
15952;SDS011;8075;47.766;8.846;2022-10-24T08:20:19;6.25;;;4.32;;
15952;SDS011;8075;47.766;8.846;2022-10-24T08:22:47;8.95;;;4.10;;
15952;SDS011;8075;47.766;8.846;2022-10-24T08:25:19;8.05;;;3.50;;
15952;SDS011;8075;47.766;8.846;2022-10-24T08:27:46;5.03;;;2.97;;
15952;SDS011;8075;47.766;8.846;2022-10-24T08:30:22;4.45;;;2.70;;
15952;SDS011;8075;47.766;8.846;2022-10-24T08:32:53;5.57;;;2.60;;
15952;SDS011;8075;47.766;8.846;2022-10-24T08:35:22;6.72;;;3.13;;
15952;SDS011;8075;47.766;8.846;2022-10-24T08:38:05;4.93;;;2.80;;
15952;SDS011;8075;47.766;8.846;2022-10-24T08:40:37;6.47;;;2.80;;
15952;SDS011;8075;47.766;8.846;2022-10-24T08:43:03;7.47;;;3.10;;
15952;SDS011;8075;47.766;8.846;2022-10-24T08:45:42;5.43;;;2.30;;
15952;SDS011;8075;47.766;8.846;2022-10-24T08:48:15;5.45;;;2.50;;
15952;SDS011;8075;47.766;8.846;2022-10-24T08:50:44;5.93;;;2.47;;
15952;SDS011;8075;47.766;8.846;2022-10-24T08:53:28;3.67;;;2.40;;
15952;SDS011;8075;47.766;8.846;2022-10-24T08:55:58;6.25;;;2.80;;
15952;SDS011;8075;47.766;8.846;2022-10-24T09:00:51;5.68;;;2.47;;
15952;SDS011;8075;47.766;8.846;2022-10-24T09:03:22;5.38;;;3.08;;
15952;SDS011;8075;47.766;8.846;2022-10-24T09:05:55;6.65;;;3.60;;
15952;SDS011;8075;47.766;8.846;2022-10-24T09:14:06;6.00;;;3.20;;
15952;SDS011;8075;47.766;8.846;2022-10-24T09:16:36;6.85;;;3.28;;
15952;SDS011;8075;47.766;8.846;2022-10-24T09:19:13;4.35;;;2.63;;
15952;SDS011;8075;47.766;8.846;2022-10-24T09:21:40;5.53;;;3.00;;
15952;SDS011;8075;47.766;8.846;2022-10-24T09:24:31;6.10;;;3.05;;
15952;SDS011;8075;47.766;8.846;2022-10-24T09:26:59;6.00;;;2.72;;
15952;SDS011;8075;47.766;8.846;2022-10-24T09:29:46;5.90;;;3.20;;
15952;SDS011;8075;47.766;8.846;2022-10-24T09:32:22;6.32;;;2.67;;
15952;SDS011;8075;47.766;8.846;2022-10-24T09:34:58;5.80;;;2.83;;
15952;SDS011;8075;47.766;8.846;2022-10-24T09:37:29;6.03;;;3.03;;
15952;SDS011;8075;47.766;8.846;2022-10-24T09:40:10;4.90;;;2.65;;
15952;SDS011;8075;47.766;8.846;2022-10-24T09:42:37;5.95;;;2.78;;
15952;SDS011;8075;47.766;8.846;2022-10-24T09:48:19;5.30;;;2.63;;
15952;SDS011;8075;47.766;8.846;2022-10-24T09:50:46;5.55;;;2.53;;
15952;SDS011;8075;47.766;8.846;2022-10-24T09:53:38;6.13;;;2.83;;
15952;SDS011;8075;47.766;8.846;2022-10-24T09:56:09;4.68;;;2.47;;
15952;SDS011;8075;47.766;8.846;2022-10-24T09:58:39;5.78;;;2.40;;
15952;SDS011;8075;47.766;8.846;2022-10-24T10:01:20;5.97;;;2.90;;
15952;SDS011;8075;47.766;8.846;2022-10-24T10:04:09;6.72;;;3.45;;
15952;SDS011;8075;47.766;8.846;2022-10-24T10:06:33;7.70;;;4.20;;
15952;SDS011;8075;47.766;8.846;2022-10-24T10:08:59;8.43;;;5.38;;
15952;SDS011;8075;47.766;8.846;2022-10-24T10:11:33;6.97;;;3.05;;
15952;SDS011;8075;47.766;8.846;2022-10-24T10:14:01;6.30;;;3.10;;
15952;SDS011;8075;47.766;8.846;2022-10-24T10:16:28;8.52;;;3.50;;
15952;SDS011;8075;47.766;8.846;2022-10-24T10:19:17;6.00;;;3.70;;
15952;SDS011;8075;47.766;8.846;2022-10-24T10:21:51;4.50;;;3.72;;
15952;SDS011;8075;47.766;8.846;2022-10-24T10:24:24;7.07;;;4.00;;
15952;SDS011;8075;47.766;8.846;2022-10-24T10:26:53;5.72;;;3.50;;
15952;SDS011;8075;47.766;8.846;2022-10-24T10:29:20;6.20;;;3.63;;
15952;SDS011;8075;47.766;8.846;2022-10-24T10:31:57;6.97;;;3.35;;
15952;SDS011;8075;47.766;8.846;2022-10-24T10:39:38;6.55;;;3.65;;
15952;SDS011;8075;47.766;8.846;2022-10-24T10:42:22;7.47;;;5.63;;
15952;SDS011;8075;47.766;8.846;2022-10-24T10:44:57;4.80;;;3.30;;
15952;SDS011;8075;47.766;8.846;2022-10-24T10:47:35;4.67;;;2.87;;
15952;SDS011;8075;47.766;8.846;2022-10-24T10:50:25;5.97;;;3.58;;
15952;SDS011;8075;47.766;8.846;2022-10-24T10:53:41;3.40;;;2.60;;
15952;SDS011;8075;47.766;8.846;2022-10-24T11:01:56;5.70;;;1.92;;
15952;SDS011;8075;47.766;8.846;2022-10-24T11:09:48;6.57;;;4.18;;
15952;SDS011;8075;47.766;8.846;2022-10-24T11:12:28;5.07;;;2.63;;
15952;SDS011;8075;47.766;8.846;2022-10-24T11:14:58;5.00;;;1.90;;
15952;SDS011;8075;47.766;8.846;2022-10-24T11:17:26;3.30;;;1.80;;
15952;SDS011;8075;47.766;8.846;2022-10-24T11:22:28;3.20;;;2.10;;
15952;SDS011;8075;47.766;8.846;2022-10-24T11:25:40;4.65;;;3.30;;
15952;SDS011;8075;47.766;8.846;2022-10-24T11:27:58;5.10;;;2.63;;
15952;SDS011;8075;47.766;8.846;2022-10-24T11:30:38;4.23;;;2.60;;
15952;SDS011;8075;47.766;8.846;2022-10-24T11:33:16;7.32;;;4.05;;
15952;SDS011;8075;47.766;8.846;2022-10-24T11:35:52;7.95;;;3.95;;
15952;SDS011;8075;47.766;8.846;2022-10-24T11:38:42;6.32;;;3.80;;
15952;SDS011;8075;47.766;8.846;2022-10-24T11:41:15;7.73;;;4.20;;
15952;SDS011;8075;47.766;8.846;2022-10-24T11:43:42;8.60;;;5.50;;
15952;SDS011;8075;47.766;8.846;2022-10-24T11:46:38;7.68;;;3.42;;
15952;SDS011;8075;47.766;8.846;2022-10-24T11:49:18;5.22;;;2.50;;
15952;SDS011;8075;47.766;8.846;2022-10-24T11:51:50;3.80;;;2.13;;
15952;SDS011;8075;47.766;8.846;2022-10-24T11:54:37;3.35;;;1.73;;
15952;SDS011;8075;47.766;8.846;2022-10-24T11:57:12;4.50;;;1.70;;
15952;SDS011;8075;47.766;8.846;2022-10-24T11:59:46;5.18;;;1.80;;
15952;SDS011;8075;47.766;8.846;2022-10-24T12:02:31;4.17;;;1.30;;
15952;SDS011;8075;47.766;8.846;2022-10-24T12:13:02;2.05;;;1.20;;
15952;SDS011;8075;47.766;8.846;2022-10-24T12:20:28;4.72;;;1.63;;
15952;SDS011;8075;47.766;8.846;2022-10-24T12:22:57;3.70;;;1.30;;
15952;SDS011;8075;47.766;8.846;2022-10-24T12:27:55;3.05;;;1.55;;
15952;SDS011;8075;47.766;8.846;2022-10-24T12:30:25;2.33;;;1.58;;
15952;SDS011;8075;47.766;8.846;2022-10-24T12:32:55;2.35;;;1.23;;
15952;SDS011;8075;47.766;8.846;2022-10-24T12:37:51;1.67;;;1.25;;
15952;SDS011;8075;47.766;8.846;2022-10-24T12:43:06;4.20;;;1.93;;
15952;SDS011;8075;47.766;8.846;2022-10-24T12:45:32;2.83;;;2.10;;
15952;SDS011;8075;47.766;8.846;2022-10-24T12:56:04;3.25;;;1.58;;
15952;SDS011;8075;47.766;8.846;2022-10-24T12:58:20;2.38;;;1.70;;
15952;SDS011;8075;47.766;8.846;2022-10-24T13:01:47;3.20;;;1.38;;
15952;SDS011;8075;47.766;8.846;2022-10-24T13:04:04;2.20;;;1.50;;
15952;SDS011;8075;47.766;8.846;2022-10-24T13:06:57;2.38;;;1.30;;
15952;SDS011;8075;47.766;8.846;2022-10-24T13:17:12;4.10;;;1.07;;
15952;SDS011;8075;47.766;8.846;2022-10-24T13:19:45;1.90;;;1.30;;
15952;SDS011;8075;47.766;8.846;2022-10-24T13:22:34;3.25;;;1.83;;
15952;SDS011;8075;47.766;8.846;2022-10-24T13:25:16;3.20;;;1.63;;
15952;SDS011;8075;47.766;8.846;2022-10-24T13:27:42;3.05;;;1.70;;
15952;SDS011;8075;47.766;8.846;2022-10-24T13:30:21;2.33;;;1.30;;
15952;SDS011;8075;47.766;8.846;2022-10-24T13:32:48;2.53;;;1.52;;
15952;SDS011;8075;47.766;8.846;2022-10-24T13:35:16;1.90;;;1.10;;
15952;SDS011;8075;47.766;8.846;2022-10-24T13:37:43;3.60;;;1.50;;
15952;SDS011;8075;47.766;8.846;2022-10-24T13:40:15;2.55;;;1.30;;
15952;SDS011;8075;47.766;8.846;2022-10-24T13:43:04;2.10;;;1.40;;
15952;SDS011;8075;47.766;8.846;2022-10-24T13:46:03;2.10;;;1.20;;
15952;SDS011;8075;47.766;8.846;2022-10-24T13:48:45;1.90;;;1.20;;
15952;SDS011;8075;47.766;8.846;2022-10-24T13:54:24;1.15;;;1.05;;
15952;SDS011;8075;47.766;8.846;2022-10-24T13:56:51;3.08;;;1.20;;
15952;SDS011;8075;47.766;8.846;2022-10-24T13:59:33;4.50;;;1.80;;
15952;SDS011;8075;47.766;8.846;2022-10-24T14:02:05;3.50;;;1.38;;
15952;SDS011;8075;47.766;8.846;2022-10-24T14:04:42;5.07;;;2.20;;
15952;SDS011;8075;47.766;8.846;2022-10-24T14:07:12;2.35;;;1.70;;
15952;SDS011;8075;47.766;8.846;2022-10-24T14:09:43;4.53;;;2.40;;
15952;SDS011;8075;47.766;8.846;2022-10-24T14:12:22;4.07;;;2.00;;
15952;SDS011;8075;47.766;8.846;2022-10-24T14:14:51;4.57;;;2.40;;
15952;SDS011;8075;47.766;8.846;2022-10-24T14:17:22;5.22;;;2.88;;
15952;SDS011;8075;47.766;8.846;2022-10-24T14:19:57;5.43;;;3.50;;
15952;SDS011;8075;47.766;8.846;2022-10-24T14:22:28;3.70;;;2.92;;
15952;SDS011;8075;47.766;8.846;2022-10-24T14:25:00;3.50;;;2.30;;
15952;SDS011;8075;47.766;8.846;2022-10-24T14:27:26;4.45;;;2.67;;
15952;SDS011;8075;47.766;8.846;2022-10-24T14:29:57;6.03;;;2.42;;
15952;SDS011;8075;47.766;8.846;2022-10-24T14:32:26;4.13;;;2.00;;
15952;SDS011;8075;47.766;8.846;2022-10-24T14:34:55;2.75;;;2.08;;
15952;SDS011;8075;47.766;8.846;2022-10-24T14:37:42;4.57;;;2.20;;
15952;SDS011;8075;47.766;8.846;2022-10-24T14:40:16;3.00;;;1.83;;
15952;SDS011;8075;47.766;8.846;2022-10-24T14:42:45;3.25;;;1.67;;
15952;SDS011;8075;47.766;8.846;2022-10-24T14:48:19;4.43;;;1.73;;
15952;SDS011;8075;47.766;8.846;2022-10-24T14:50:51;2.80;;;1.48;;
15952;SDS011;8075;47.766;8.846;2022-10-24T14:53:24;2.63;;;1.58;;
15952;SDS011;8075;47.766;8.846;2022-10-24T14:55:54;3.13;;;1.80;;
15952;SDS011;8075;47.766;8.846;2022-10-24T14:58:22;4.25;;;2.55;;
15952;SDS011;8075;47.766;8.846;2022-10-24T15:00:51;4.28;;;1.90;;
15952;SDS011;8075;47.766;8.846;2022-10-24T15:03:21;2.70;;;1.98;;
15952;SDS011;8075;47.766;8.846;2022-10-24T15:05:57;3.15;;;1.67;;
15952;SDS011;8075;47.766;8.846;2022-10-24T15:08:25;4.10;;;2.00;;
15952;SDS011;8075;47.766;8.846;2022-10-24T15:11:03;2.55;;;1.38;;
15952;SDS011;8075;47.766;8.846;2022-10-24T15:13:32;3.80;;;1.40;;
15952;SDS011;8075;47.766;8.846;2022-10-24T15:18:59;3.92;;;1.90;;
15952;SDS011;8075;47.766;8.846;2022-10-24T15:21:30;4.60;;;1.63;;
15952;SDS011;8075;47.766;8.846;2022-10-24T15:23:57;2.55;;;1.60;;
15952;SDS011;8075;47.766;8.846;2022-10-24T15:26:35;3.75;;;1.70;;
15952;SDS011;8075;47.766;8.846;2022-10-24T15:31:42;3.07;;;1.90;;
15952;SDS011;8075;47.766;8.846;2022-10-24T15:34:13;3.90;;;1.55;;
15952;SDS011;8075;47.766;8.846;2022-10-24T15:36:40;3.38;;;1.25;;
15952;SDS011;8075;47.766;8.846;2022-10-24T15:41:38;2.13;;;1.20;;
15952;SDS011;8075;47.766;8.846;2022-10-24T15:44:28;3.33;;;1.25;;
15952;SDS011;8075;47.766;8.846;2022-10-24T15:46:54;3.45;;;1.30;;
15952;SDS011;8075;47.766;8.846;2022-10-24T15:49:20;4.32;;;1.80;;
15952;SDS011;8075;47.766;8.846;2022-10-24T15:51:46;4.72;;;1.70;;
15952;SDS011;8075;47.766;8.846;2022-10-24T15:54:17;2.50;;;1.50;;
15952;SDS011;8075;47.766;8.846;2022-10-24T15:56:46;4.07;;;2.00;;
15952;SDS011;8075;47.766;8.846;2022-10-24T15:59:12;3.25;;;1.50;;
15952;SDS011;8075;47.766;8.846;2022-10-24T16:01:40;2.75;;;1.15;;
15952;SDS011;8075;47.766;8.846;2022-10-24T16:04:14;2.90;;;1.10;;
15952;SDS011;8075;47.766;8.846;2022-10-24T16:06:42;2.38;;;1.05;;
15952;SDS011;8075;47.766;8.846;2022-10-24T16:09:13;2.10;;;1.23;;
15952;SDS011;8075;47.766;8.846;2022-10-24T16:11:45;4.07;;;1.30;;
15952;SDS011;8075;47.766;8.846;2022-10-24T16:14:28;3.38;;;1.10;;
15952;SDS011;8075;47.766;8.846;2022-10-24T16:16:55;3.42;;;1.15;;
15952;SDS011;8075;47.766;8.846;2022-10-24T16:19:21;3.38;;;1.40;;
15952;SDS011;8075;47.766;8.846;2022-10-24T16:22:02;3.03;;;1.30;;
15952;SDS011;8075;47.766;8.846;2022-10-24T16:24:34;3.58;;;1.35;;
15952;SDS011;8075;47.766;8.846;2022-10-24T16:27:00;3.45;;;1.50;;
15952;SDS011;8075;47.766;8.846;2022-10-24T16:29:28;2.60;;;1.30;;
15952;SDS011;8075;47.766;8.846;2022-10-24T16:31:54;1.43;;;1.03;;
15952;SDS011;8075;47.766;8.846;2022-10-24T16:34:20;4.05;;;1.27;;
15952;SDS011;8075;47.766;8.846;2022-10-24T16:36:49;2.03;;;1.63;;
15952;SDS011;8075;47.766;8.846;2022-10-24T16:39:17;2.00;;;1.48;;
15952;SDS011;8075;47.766;8.846;2022-10-24T16:41:43;1.50;;;1.35;;
15952;SDS011;8075;47.766;8.846;2022-10-24T16:44:10;3.25;;;1.70;;
15952;SDS011;8075;47.766;8.846;2022-10-24T16:46:36;2.70;;;1.30;;
15952;SDS011;8075;47.766;8.846;2022-10-24T16:49:02;2.22;;;1.50;;
15952;SDS011;8075;47.766;8.846;2022-10-24T16:51:28;2.65;;;1.27;;
15952;SDS011;8075;47.766;8.846;2022-10-24T16:53:56;1.90;;;1.33;;
15952;SDS011;8075;47.766;8.846;2022-10-24T16:56:22;2.58;;;1.25;;
15952;SDS011;8075;47.766;8.846;2022-10-24T16:58:48;2.63;;;1.60;;
15952;SDS011;8075;47.766;8.846;2022-10-24T17:01:14;2.10;;;1.30;;
15952;SDS011;8075;47.766;8.846;2022-10-24T17:03:41;1.33;;;1.00;;
15952;SDS011;8075;47.766;8.846;2022-10-24T17:06:08;1.63;;;1.20;;
15952;SDS011;8075;47.766;8.846;2022-10-24T17:08:34;1.73;;;1.55;;
15952;SDS011;8075;47.766;8.846;2022-10-24T17:11:01;4.32;;;1.70;;
15952;SDS011;8075;47.766;8.846;2022-10-24T17:13:27;3.10;;;1.50;;
15952;SDS011;8075;47.766;8.846;2022-10-24T17:15:53;3.70;;;3.40;;
15952;SDS011;8075;47.766;8.846;2022-10-24T17:18:20;7.63;;;7.03;;
15952;SDS011;8075;47.766;8.846;2022-10-24T17:20:52;5.28;;;4.80;;
15952;SDS011;8075;47.766;8.846;2022-10-24T17:23:24;3.97;;;3.50;;
15952;SDS011;8075;47.766;8.846;2022-10-24T17:25:50;5.00;;;4.30;;
15952;SDS011;8075;47.766;8.846;2022-10-24T17:28:16;6.35;;;5.75;;
15952;SDS011;8075;47.766;8.846;2022-10-24T17:30:42;5.28;;;4.53;;
15952;SDS011;8075;47.766;8.846;2022-10-24T17:33:09;4.10;;;3.80;;
15952;SDS011;8075;47.766;8.846;2022-10-24T17:35:40;5.88;;;4.10;;
15952;SDS011;8075;47.766;8.846;2022-10-24T17:40:47;7.82;;;7.03;;
15952;SDS011;8075;47.766;8.846;2022-10-24T17:43:16;10.77;;;9.85;;
15952;SDS011;8075;47.766;8.846;2022-10-24T17:45:42;10.40;;;9.48;;
15952;SDS011;8075;47.766;8.846;2022-10-24T17:48:08;9.98;;;9.07;;
15952;SDS011;8075;47.766;8.846;2022-10-24T17:50:40;5.88;;;5.28;;
15952;SDS011;8075;47.766;8.846;2022-10-24T17:53:06;4.65;;;3.47;;
15952;SDS011;8075;47.766;8.846;2022-10-24T17:55:32;6.60;;;5.55;;
15952;SDS011;8075;47.766;8.846;2022-10-24T17:57:59;4.30;;;3.45;;
15952;SDS011;8075;47.766;8.846;2022-10-24T18:00:25;3.90;;;3.50;;
15952;SDS011;8075;47.766;8.846;2022-10-24T18:02:51;4.53;;;2.47;;
15952;SDS011;8075;47.766;8.846;2022-10-24T18:05:18;3.08;;;2.70;;
15952;SDS011;8075;47.766;8.846;2022-10-24T18:07:45;6.45;;;2.60;;
15952;SDS011;8075;47.766;8.846;2022-10-24T18:10:12;3.78;;;2.20;;
15952;SDS011;8075;47.766;8.846;2022-10-24T18:12:39;2.60;;;2.40;;
15952;SDS011;8075;47.766;8.846;2022-10-24T18:15:08;4.35;;;3.10;;
15952;SDS011;8075;47.766;8.846;2022-10-24T18:17:35;3.47;;;2.50;;
15952;SDS011;8075;47.766;8.846;2022-10-24T18:20:01;4.07;;;2.38;;
15952;SDS011;8075;47.766;8.846;2022-10-24T18:22:34;4.28;;;2.30;;
15952;SDS011;8075;47.766;8.846;2022-10-24T18:25:02;3.00;;;2.00;;
15952;SDS011;8075;47.766;8.846;2022-10-24T18:27:29;3.95;;;2.20;;
15952;SDS011;8075;47.766;8.846;2022-10-24T18:29:55;2.33;;;2.00;;
15952;SDS011;8075;47.766;8.846;2022-10-24T18:32:21;4.60;;;2.37;;
15952;SDS011;8075;47.766;8.846;2022-10-24T18:34:47;2.80;;;2.20;;
15952;SDS011;8075;47.766;8.846;2022-10-24T18:37:13;2.72;;;2.08;;
15952;SDS011;8075;47.766;8.846;2022-10-24T18:39:40;4.10;;;2.20;;
15952;SDS011;8075;47.766;8.846;2022-10-24T18:42:17;3.45;;;1.90;;
15952;SDS011;8075;47.766;8.846;2022-10-24T18:44:45;1.80;;;1.70;;
15952;SDS011;8075;47.766;8.846;2022-10-24T18:47:14;4.87;;;2.23;;
15952;SDS011;8075;47.766;8.846;2022-10-24T18:49:40;3.28;;;2.17;;
15952;SDS011;8075;47.766;8.846;2022-10-24T18:54:36;4.72;;;2.97;;
15952;SDS011;8075;47.766;8.846;2022-10-24T18:57:17;2.38;;;2.08;;
15952;SDS011;8075;47.766;8.846;2022-10-24T18:59:45;2.25;;;1.70;;
15952;SDS011;8075;47.766;8.846;2022-10-24T19:02:19;3.00;;;2.05;;
15952;SDS011;8075;47.766;8.846;2022-10-24T19:04:50;5.65;;;3.20;;
15952;SDS011;8075;47.766;8.846;2022-10-24T19:07:17;3.58;;;2.70;;
15952;SDS011;8075;47.766;8.846;2022-10-24T19:09:43;2.90;;;2.60;;
15952;SDS011;8075;47.766;8.846;2022-10-24T19:12:09;4.90;;;2.60;;
15952;SDS011;8075;47.766;8.846;2022-10-24T19:14:35;4.72;;;3.28;;
15952;SDS011;8075;47.766;8.846;2022-10-24T19:17:01;6.78;;;3.67;;
15952;SDS011;8075;47.766;8.846;2022-10-24T19:19:28;3.55;;;3.20;;
15952;SDS011;8075;47.766;8.846;2022-10-24T19:21:55;4.25;;;3.20;;
15952;SDS011;8075;47.766;8.846;2022-10-24T19:24:21;6.32;;;3.80;;
15952;SDS011;8075;47.766;8.846;2022-10-24T19:26:47;6.35;;;3.72;;
15952;SDS011;8075;47.766;8.846;2022-10-24T19:29:16;6.00;;;3.50;;
15952;SDS011;8075;47.766;8.846;2022-10-24T19:31:42;4.10;;;2.90;;
15952;SDS011;8075;47.766;8.846;2022-10-24T19:34:09;3.97;;;2.92;;
15952;SDS011;8075;47.766;8.846;2022-10-24T19:36:35;5.00;;;3.17;;
15952;SDS011;8075;47.766;8.846;2022-10-24T19:39:01;4.53;;;4.10;;
15952;SDS011;8075;47.766;8.846;2022-10-24T19:41:27;4.20;;;3.80;;
15952;SDS011;8075;47.766;8.846;2022-10-24T19:43:53;3.95;;;3.30;;
15952;SDS011;8075;47.766;8.846;2022-10-24T19:46:19;3.83;;;2.78;;
15952;SDS011;8075;47.766;8.846;2022-10-24T19:48:46;2.47;;;2.20;;
15952;SDS011;8075;47.766;8.846;2022-10-24T19:51:13;4.10;;;2.90;;
15952;SDS011;8075;47.766;8.846;2022-10-24T19:53:40;6.55;;;2.63;;
15952;SDS011;8075;47.766;8.846;2022-10-24T19:56:18;4.70;;;2.53;;
15952;SDS011;8075;47.766;8.846;2022-10-24T19:58:45;5.40;;;2.85;;
15952;SDS011;8075;47.766;8.846;2022-10-24T20:01:12;5.43;;;2.90;;
15952;SDS011;8075;47.766;8.846;2022-10-24T20:03:39;3.65;;;2.53;;
15952;SDS011;8075;47.766;8.846;2022-10-24T20:06:05;4.88;;;2.58;;
15952;SDS011;8075;47.766;8.846;2022-10-24T20:08:32;2.50;;;2.30;;
15952;SDS011;8075;47.766;8.846;2022-10-24T20:10:58;4.35;;;2.60;;
15952;SDS011;8075;47.766;8.846;2022-10-24T20:13:24;3.30;;;3.00;;
15952;SDS011;8075;47.766;8.846;2022-10-24T20:15:57;4.85;;;3.47;;
15952;SDS011;8075;47.766;8.846;2022-10-24T20:18:24;5.93;;;3.55;;
15952;SDS011;8075;47.766;8.846;2022-10-24T20:20:50;3.63;;;3.28;;
15952;SDS011;8075;47.766;8.846;2022-10-24T20:23:17;4.77;;;3.80;;
15952;SDS011;8075;47.766;8.846;2022-10-24T20:25:43;5.55;;;3.95;;
15952;SDS011;8075;47.766;8.846;2022-10-24T20:28:09;4.82;;;4.43;;
15952;SDS011;8075;47.766;8.846;2022-10-24T20:30:39;5.75;;;5.15;;
15952;SDS011;8075;47.766;8.846;2022-10-24T20:33:05;7.68;;;5.30;;
15952;SDS011;8075;47.766;8.846;2022-10-24T20:35:31;5.50;;;4.97;;
15952;SDS011;8075;47.766;8.846;2022-10-24T20:37:57;4.40;;;3.90;;
15952;SDS011;8075;47.766;8.846;2022-10-24T20:40:23;4.17;;;3.50;;
15952;SDS011;8075;47.766;8.846;2022-10-24T20:42:50;3.67;;;3.38;;